LYTVLGKR

Guest
Details From LYTV - Tivat
To LGKR - IOANNIS KAPODISTRIAS INTL
Flight Number -
Tags generated
Created
Modified
Stats Distance 177 nm / 328 km
Max Altitude 25,000 ft / 7,620 m
Waypoints 4
Social Downloads 0
Likes 0
Share VATSIM

Download

Looking for another format? Having issues loading an existing format? Contact us
Advertisement - Login to hide

Notes

Basic altitude profile: - Ascent Rate: 2500ft/min - Ascent Speed: 250kts - Cruise Altitude: 35000ft - Cruise Speed: 420kts - Descent Rate: 1500ft/min - Descent Speed: 250kts Options: - Use NATs: no - Use PACOTS: no - Use low airways: no - Use high airways: yes

Route

LYTV RODON UW62 GRIBA LGKR

ID Type Via Altitude Latitude Longitude Leg Dist Tot Dist Heading (true) Name
O LYTV APT - 0 ft / 0 m 42.40466˚ 18.72329˚ - 0 nm - Tivat
RODON FIX - 21,100 ft / 6,431 m 41.45833˚ 19.10000˚ 59 nm 59 nm 163° / 164° -
GRIBA FIX UW62 (AWY-HI) 25,000 ft / 7,620 m 40.47472˚ 19.62000˚ 63 nm 122 nm 158° / 158° -
O LGKR APT - 0 ft / 0 m 39.60178˚ 19.91191˚ 54 nm 176 nm 166° / 166° IOANNIS KAPODISTRIAS INTL

Altitude Profile

Advertisement - Login to hide

Weather


0- 5 10 15 20 25 30 35+ Temperature / ° C

Clouds and Precipitation
Forecast for 2017-12-19 00:00 UTC. Updated 2 hours ago

Ground ~20,000 ft ~40,000 ft Winds

LYTV

Details ICAO LYTV (TIV)
Name Tivat
Region Serbia and Montenegro
Timezone Europe/Podgorica (UTC+1.0)
Stats Elevation 20 ft / 6 m (AMSL)
Location 42.404657° 18.723295°
Runways 1
Magnetic Variation 4.164° E

METAR

LYTV 182100Z 03007KT 310V090 CAVOK 06/M09 Q1021

Decode

TAF

TAF LYTV 181700Z 1818/1918 01009KT CAVOK TX10/1912Z TN00/1904Z TEMPO 1820/1906 02015G25KT

Decode

Departure Runways

ID Width Length Bearing (true) Bearing (mag) Surface Threshold Offset Overrun Length
14 148 ft / 45 m 8,206 ft / 2,501 m 139.03° 134.87° Asphalt 300 ft / 91 m 0 ft / 0 m
32 148 ft / 45 m 8,206 ft / 2,501 m 319.04° 314.88° Asphalt 300 ft / 91 m 0 ft / 0 m

LGKR

Details ICAO LGKR (CFU)
Name IOANNIS KAPODISTRIAS INTL
Region Greece
Timezone Europe/Athens (UTC+2.0)
Stats Elevation 6 ft / 2 m (AMSL)
Location 39.601779° 19.911908°
Runways 1
Magnetic Variation 4.099° E

METAR

LGKR 182050Z 00000KT 9999 SCT030 SCT080 05/04 Q1019 NOSIG

Decode

TAF

TAF LGKR 181700Z 1818/1918 32013KT 9999 SCT035 SCT080 PROB30 TEMPO 1818/1822 5000 RA SCT030 BKN080 PROB30 TEMPO 1818/1820 4000 TSRA FEW018CB BKN030 OVC080

Decode

Destination Runways

ID Width Length Bearing (true) Bearing (mag) Surface Threshold Offset Overrun Length
17 148 ft / 45 m 7,815 ft / 2,382 m 168.81° 164.71° Asphalt 1,348 ft / 411 m 0 ft / 0 m
35 148 ft / 45 m 7,815 ft / 2,382 m 348.81° 344.71° Asphalt 213 ft / 65 m 0 ft / 0 m

Popular Alternatives